Time;durP1;ratioP1;P1;durP2;ratioP2;P2;SDS_P1;SDS_P2;PMS_P1;PMS_P2;Temp;Humidity;BMP_temperature;BMP_pressure;BME280_temperature;BME280_humidity;BME280_pressure;Samples;Min_cycle;Max_cycle;Signal;HPM_P1;HPM_P2
2022/12/14 00:01:10;;;;;;;2.43;2.23;;;;;;;;;;6291563;28;20296;-81
2022/12/14 00:04:16;;;;;;;3.20;2.40;;;;;;;;;;6289095;28;20297;-80
2022/12/14 00:07:22;;;;;;;2.70;2.33;;;;;;;;;;6286837;28;20272;-81
2022/12/14 00:10:28;;;;;;;2.53;2.43;;;;;;;;;;6285419;28;20296;-80
2022/12/14 00:13:33;;;;;;;2.30;2.20;;;;;;;;;;6287435;28;20289;-81
2022/12/14 00:16:39;;;;;;;4.17;2.50;;;;;;;;;;6288880;28;20272;-81
2022/12/14 00:19:50;;;;;;;2.30;2.30;;;;;;;;;;6287828;28;20296;-80
2022/12/14 00:22:57;;;;;;;2.10;2.10;;;;;;;;;;6286635;28;20460;-81
2022/12/14 00:26:11;;;;;;;2.23;2.20;;;;;;;;;;6286494;28;20312;-79
2022/12/14 00:29:19;;;;;;;2.30;2.30;;;;;;;;;;6287570;28;20592;-79
2022/12/14 00:32:24;;;;;;;2.37;2.27;;;;;;;;;;6286430;28;20274;-80
2022/12/14 00:35:31;;;;;;;3.00;2.10;;;;;;;;;;6284818;28;20309;-80
2022/12/14 00:38:40;;;;;;;2.37;2.27;;;;;;;;;;6269220;28;20298;-80
2022/12/14 00:41:45;;;;;;;2.00;2.00;;;;;;;;;;6285969;28;20515;-80
2022/12/14 00:44:51;;;;;;;2.40;2.20;;;;;;;;;;6286490;28;20292;-80
2022/12/14 00:47:59;;;;;;;2.60;2.50;;;;;;;;;;6286006;28;20277;-80
2022/12/14 00:51:06;;;;;;;2.00;2.00;;;;;;;;;;6286809;28;20296;-80
2022/12/14 00:54:15;;;;;;;2.33;2.23;;;;;;;;;;6286800;28;20305;-81
2022/12/14 00:57:20;;;;;;;2.50;2.43;;;;;;;;;;6285926;28;20273;-81
2022/12/14 01:00:25;;;;;;;3.17;2.97;;;;;;;;;;6286476;28;20293;-80
2022/12/14 01:03:29;;;;;;;2.57;2.37;;;;;;;;;;6285149;28;20278;-81
2022/12/14 01:06:39;;;;;;;2.37;2.23;;;;;;;;;;6287394;28;20274;-79
2022/12/14 01:09:48;;;;;;;2.60;2.57;;;;;;;;;;6287474;28;20310;-79
2022/12/14 01:12:54;;;;;;;2.47;2.37;;;;;;;;;;6289282;28;20269;-80
2022/12/14 01:16:03;;;;;;;2.40;2.17;;;;;;;;;;6285434;28;20297;-80
2022/12/14 01:19:09;;;;;;;2.70;2.50;;;;;;;;;;6285613;28;20290;-81
2022/12/14 01:22:15;;;;;;;2.70;2.60;;;;;;;;;;6285777;28;20273;-80
2022/12/14 01:25:20;;;;;;;2.10;2.10;;;;;;;;;;6285072;28;20482;-79
2022/12/14 01:28:25;;;;;;;2.30;2.30;;;;;;;;;;6284674;28;20270;-79
2022/12/14 01:31:33;;;;;;;2.20;2.20;;;;;;;;;;6285664;28;20270;-80
2022/12/14 01:34:38;;;;;;;2.20;2.07;;;;;;;;;;6284384;28;20310;-80
2022/12/14 01:37:44;;;;;;;1.60;1.60;;;;;;;;;;6287165;28;20282;-80
2022/12/14 01:40:57;;;;;;;1.97;1.93;;;;;;;;;;6286220;28;20297;-81
2022/12/14 01:44:04;;;;;;;2.17;2.10;;;;;;;;;;6284399;28;20298;-80
2022/12/14 01:47:18;;;;;;;2.40;2.13;;;;;;;;;;6285271;28;20274;-80
2022/12/14 01:50:28;;;;;;;2.20;2.10;;;;;;;;;;6285822;28;20294;-81
2022/12/14 01:53:35;;;;;;;2.00;2.00;;;;;;;;;;6285459;28;20266;-79
2022/12/14 01:56:43;;;;;;;2.30;2.30;;;;;;;;;;6284218;28;20290;-79
2022/12/14 01:59:51;;;;;;;2.20;2.17;;;;;;;;;;6284407;28;20388;-81
2022/12/14 02:03:00;;;;;;;2.67;2.17;;;;;;;;;;6306954;22;20312;-76
2022/12/14 02:06:07;;;;;;;2.20;2.13;;;;;;;;;;6235545;28;20294;-77
2022/12/14 02:09:18;;;;;;;2.57;2.27;;;;;;;;;;6236197;28;20303;-75
2022/12/14 02:12:28;;;;;;;2.07;1.97;;;;;;;;;;6236490;28;20290;-75
2022/12/14 02:15:34;;;;;;;2.23;2.13;;;;;;;;;;6235214;28;20298;-74
2022/12/14 02:18:39;;;;;;;4.03;2.43;;;;;;;;;;6235733;28;20607;-76
2022/12/14 02:22:04;;;;;;;2.57;2.50;;;;;;;;;;6210455;28;20413;-76
2022/12/14 02:26:03;;;;;;;2.80;2.60;;;;;;;;;;6196374;28;20305;-76
2022/12/14 02:29:34;;;;;;;2.30;2.20;;;;;;;;;;6136444;28;20309;-76
2022/12/14 02:33:06;;;;;;;2.43;2.33;;;;;;;;;;6122706;29;20277;-76
2022/12/14 02:36:16;;;;;;;2.70;2.50;;;;;;;;;;6162758;28;20296;-77
2022/12/14 02:39:27;;;;;;;2.50;2.40;;;;;;;;;;6183989;28;20308;-76
2022/12/14 02:42:40;;;;;;;2.47;2.37;;;;;;;;;;6184362;28;20277;-76
2022/12/14 02:45:53;;;;;;;2.13;2.13;;;;;;;;;;6183807;28;20488;-76
2022/12/14 02:49:02;;;;;;;2.47;2.37;;;;;;;;;;6183839;28;20300;-76
2022/12/14 02:52:13;;;;;;;2.63;2.33;;;;;;;;;;6184114;28;20280;-76
2022/12/14 02:55:22;;;;;;;2.57;2.47;;;;;;;;;;6183581;28;20416;-76
2022/12/14 02:58:32;;;;;;;2.10;2.10;;;;;;;;;;6191146;28;20270;-77
2022/12/14 03:01:39;;;;;;;2.50;2.40;;;;;;;;;;6235538;28;20271;-76
2022/12/14 03:04:48;;;;;;;3.93;2.00;;;;;;;;;;6234583;28;20307;-76
2022/12/14 03:07:55;;;;;;;2.10;2.10;;;;;;;;;;6239841;28;20305;-76
2022/12/14 03:11:02;;;;;;;2.10;2.10;;;;;;;;;;6239640;28;20355;-76
2022/12/14 03:14:10;;;;;;;1.90;1.90;;;;;;;;;;6237936;28;20291;-76
2022/12/14 03:17:19;;;;;;;2.13;2.13;;;;;;;;;;6240019;28;20291;-76
2022/12/14 03:20:26;;;;;;;2.20;2.10;;;;;;;;;;6239176;28;20592;-76
2022/12/14 03:23:33;;;;;;;2.40;2.30;;;;;;;;;;6239220;28;20552;-76
2022/12/14 03:26:41;;;;;;;2.17;2.17;;;;;;;;;;6239199;28;20280;-75
2022/12/14 03:29:54;;;;;;;2.83;2.10;;;;;;;;;;6237774;28;20296;-76
2022/12/14 03:33:03;;;;;;;2.20;2.10;;;;;;;;;;6239507;28;20275;-76
2022/12/14 03:36:13;;;;;;;2.47;2.27;;;;;;;;;;6238476;28;20303;-76
2022/12/14 03:39:22;;;;;;;2.40;2.30;;;;;;;;;;6238939;28;20303;-76
2022/12/14 03:42:33;;;;;;;1.93;1.93;;;;;;;;;;6237677;28;20276;-75
2022/12/14 03:45:44;;;;;;;2.70;2.57;;;;;;;;;;6238748;28;20299;-76
2022/12/14 03:48:52;;;;;;;2.13;2.13;;;;;;;;;;6238790;28;20291;-76
2022/12/14 03:52:03;;;;;;;2.43;2.33;;;;;;;;;;6238837;28;20529;-76
2022/12/14 03:55:18;;;;;;;2.50;2.40;;;;;;;;;;6238411;28;20285;-75
2022/12/14 03:58:29;;;;;;;2.53;2.47;;;;;;;;;;6238225;28;20275;-75
2022/12/14 04:01:39;;;;;;;2.50;2.40;;;;;;;;;;6238302;28;20492;-75
2022/12/14 04:04:49;;;;;;;2.50;2.40;;;;;;;;;;6233449;28;20308;-77
2022/12/14 04:08:03;;;;;;;2.60;2.50;;;;;;;;;;6236822;28;20300;-77
2022/12/14 04:21:39;;;;;;;2.43;2.33;;;;;;;;;;6213431;28;20275;-77
2022/12/14 04:31:49;;;;;;;2.73;2.53;;;;;;;;;;6193551;28;20269;-75
2022/12/14 04:34:57;;;;;;;2.60;2.40;;;;;;;;;;6213681;28;20305;-77
2022/12/14 04:38:06;;;;;;;2.90;2.60;;;;;;;;;;6235395;28;20295;-76
2022/12/14 04:41:17;;;;;;;3.07;2.77;;;;;;;;;;6237981;28;20556;-76
2022/12/14 04:44:27;;;;;;;2.70;2.60;;;;;;;;;;6237276;28;20304;-76
2022/12/14 04:47:35;;;;;;;2.40;2.30;;;;;;;;;;6237613;28;20295;-76
2022/12/14 04:50:44;;;;;;;3.90;2.67;;;;;;;;;;6238090;28;20272;-75
2022/12/14 04:53:53;;;;;;;3.20;3.10;;;;;;;;;;6237546;28;20303;-75
2022/12/14 04:57:04;;;;;;;2.93;2.73;;;;;;;;;;6237037;28;20291;-76
2022/12/14 05:00:10;;;;;;;2.50;2.40;;;;;;;;;;6237721;28;20272;-75
2022/12/14 05:03:22;;;;;;;2.80;2.70;;;;;;;;;;6236945;28;20296;-76
2022/12/14 05:06:30;;;;;;;2.53;2.43;;;;;;;;;;6237901;28;20275;-75
2022/12/14 05:09:40;;;;;;;2.37;2.27;;;;;;;;;;6237372;28;20296;-76
2022/12/14 05:12:51;;;;;;;2.70;2.60;;;;;;;;;;6236894;28;20580;-76
2022/12/14 05:15:57;;;;;;;2.80;2.70;;;;;;;;;;6235557;28;20292;-76
2022/12/14 05:19:02;;;;;;;3.63;2.70;;;;;;;;;;6236927;28;20309;-76
2022/12/14 05:22:10;;;;;;;2.60;2.40;;;;;;;;;;6236654;28;20263;-77
2022/12/14 05:25:16;;;;;;;2.43;2.33;;;;;;;;;;6237069;28;20273;-77
2022/12/14 05:28:32;;;;;;;3.07;2.60;;;;;;;;;;6236448;28;20305;-75
2022/12/14 05:31:37;;;;;;;2.27;2.27;;;;;;;;;;6239546;28;20265;-75
2022/12/14 05:34:42;;;;;;;2.70;2.60;;;;;;;;;;6236947;28;20296;-75
2022/12/14 05:37:47;;;;;;;2.27;2.27;;;;;;;;;;6235910;28;20292;-75
2022/12/14 05:40:56;;;;;;;2.30;2.20;;;;;;;;;;6236713;28;20272;-75
2022/12/14 05:44:03;;;;;;;2.53;2.10;;;;;;;;;;6236021;28;20300;-76
2022/12/14 05:47:09;;;;;;;2.23;2.23;;;;;;;;;;6235766;28;20281;-76
2022/12/14 05:50:14;;;;;;;2.60;2.50;;;;;;;;;;6236579;28;20272;-76
2022/12/14 05:53:19;;;;;;;2.40;2.30;;;;;;;;;;6236040;28;20364;-76
2022/12/14 05:56:26;;;;;;;2.80;2.70;;;;;;;;;;6239077;28;20281;-76
2022/12/14 05:59:31;;;;;;;2.60;2.50;;;;;;;;;;6236384;28;20296;-76
2022/12/14 06:02:36;;;;;;;2.53;2.33;;;;;;;;;;6236086;28;20288;-77
2022/12/14 06:05:41;;;;;;;4.00;2.90;;;;;;;;;;6236126;28;20264;-76
2022/12/14 06:08:47;;;;;;;2.70;2.60;;;;;;;;;;6236085;28;20304;-77
2022/12/14 06:11:53;;;;;;;3.00;2.80;;;;;;;;;;6234852;28;20269;-77
2022/12/14 06:14:58;;;;;;;2.50;2.40;;;;;;;;;;6235508;28;20275;-76
2022/12/14 06:18:04;;;;;;;3.00;2.70;;;;;;;;;;6235658;28;20292;-76
2022/12/14 06:21:10;;;;;;;3.33;3.13;;;;;;;;;;6236640;28;20322;-77
2022/12/14 06:24:18;;;;;;;2.90;2.73;;;;;;;;;;6235960;28;20320;-78
2022/12/14 06:27:24;;;;;;;2.70;2.70;;;;;;;;;;6235411;28;20290;-76
2022/12/14 06:30:29;;;;;;;2.70;2.60;;;;;;;;;;6236275;28;20273;-76
2022/12/14 06:33:36;;;;;;;2.87;2.77;;;;;;;;;;6234431;28;20588;-76
2022/12/14 06:36:42;;;;;;;2.90;2.80;;;;;;;;;;6235900;28;22137;-75
2022/12/14 06:39:53;;;;;;;3.60;3.07;;;;;;;;;;6236847;28;20297;-77
2022/12/14 06:42:59;;;;;;;2.60;2.50;;;;;;;;;;6239430;28;20293;-75
2022/12/14 06:46:08;;;;;;;2.83;2.73;;;;;;;;;;6243557;28;20273;-76
2022/12/14 06:49:19;;;;;;;2.80;2.70;;;;;;;;;;6240316;28;20293;-76
2022/12/14 06:52:24;;;;;;;2.40;2.40;;;;;;;;;;6240469;28;20294;-76
2022/12/14 06:55:31;;;;;;;2.97;2.77;;;;;;;;;;6240718;28;20574;-76
2022/12/14 06:58:38;;;;;;;2.80;2.57;;;;;;;;;;6240448;28;20320;-77
2022/12/14 07:01:44;;;;;;;2.90;2.70;;;;;;;;;;6272598;28;20463;-77
2022/12/14 07:04:54;;;;;;;3.07;2.80;;;;;;;;;;6239686;28;20301;-75
2022/12/14 07:07:59;;;;;;;2.93;2.73;;;;;;;;;;6240417;28;20303;-75
2022/12/14 07:11:06;;;;;;;6.17;2.67;;;;;;;;;;6240486;28;20562;-77
2022/12/14 07:14:16;;;;;;;2.60;2.50;;;;;;;;;;6221750;28;20609;-78
2022/12/14 07:17:21;;;;;;;4.40;2.83;;;;;;;;;;6213720;28;20299;-77
2022/12/14 07:20:26;;;;;;;3.00;2.83;;;;;;;;;;6216247;28;20259;-77
2022/12/14 07:23:33;;;;;;;2.93;2.83;;;;;;;;;;6217952;28;20298;-77
2022/12/14 07:26:40;;;;;;;4.83;4.07;;;;;;;;;;6215438;28;20579;-76
2022/12/14 07:29:46;;;;;;;2.90;2.77;;;;;;;;;;6215233;28;20604;-77
2022/12/14 07:32:53;;;;;;;3.00;2.90;;;;;;;;;;6215367;28;20294;-77
2022/12/14 07:36:05;;;;;;;2.97;2.70;;;;;;;;;;6215053;28;20280;-76
2022/12/14 07:39:13;;;;;;;3.50;3.20;;;;;;;;;;6215148;28;20328;-78
2022/12/14 07:42:21;;;;;;;3.33;3.07;;;;;;;;;;6215210;28;20294;-78
2022/12/14 07:45:29;;;;;;;3.50;3.30;;;;;;;;;;6213975;28;20327;-78
2022/12/14 07:48:34;;;;;;;3.67;3.47;;;;;;;;;;6213556;28;20484;-78
2022/12/14 07:51:43;;;;;;;3.53;3.40;;;;;;;;;;6215133;28;20272;-76
2022/12/14 07:54:48;;;;;;;4.00;3.60;;;;;;;;;;6213916;28;20298;-77
2022/12/14 07:57:53;;;;;;;3.67;3.50;;;;;;;;;;6220493;28;20311;-78
2022/12/14 08:01:11;;;;;;;3.50;3.13;;;;;;;;;;6214211;28;20282;-77
2022/12/14 08:04:18;;;;;;;3.73;3.53;;;;;;;;;;6213618;28;20595;-76
2022/12/14 08:07:23;;;;;;;3.20;3.10;;;;;;;;;;6212963;28;20299;-77
2022/12/14 08:10:28;;;;;;;3.77;3.53;;;;;;;;;;6214922;28;20264;-78
2022/12/14 08:13:34;;;;;;;3.67;3.37;;;;;;;;;;6214026;28;20335;-77
2022/12/14 08:16:41;;;;;;;3.77;3.53;;;;;;;;;;6214470;28;20273;-77
2022/12/14 08:19:46;;;;;;;3.53;3.27;;;;;;;;;;6236619;28;20299;-78
2022/12/14 08:22:52;;;;;;;3.80;3.60;;;;;;;;;;6238800;28;20304;-78
2022/12/14 08:25:58;;;;;;;3.50;3.30;;;;;;;;;;6270180;28;20275;-78
2022/12/14 08:29:04;;;;;;;3.40;3.20;;;;;;;;;;6237985;28;20302;-77
2022/12/14 08:32:19;;;;;;;3.67;3.47;;;;;;;;;;6237492;28;20332;-78
2022/12/14 08:35:24;;;;;;;3.83;3.63;;;;;;;;;;6237985;28;20276;-77
2022/12/14 08:38:29;;;;;;;3.50;3.40;;;;;;;;;;6269352;28;20307;-77
2022/12/14 08:41:34;;;;;;;4.20;4.00;;;;;;;;;;6238120;28;20270;-77
2022/12/14 08:44:39;;;;;;;4.37;3.60;;;;;;;;;;6237225;28;20296;-77
2022/12/14 08:47:45;;;;;;;3.57;3.30;;;;;;;;;;6240799;28;20287;-78
2022/12/14 08:50:51;;;;;;;4.13;3.47;;;;;;;;;;6238749;28;20291;-79
2022/12/14 08:53:57;;;;;;;3.50;3.30;;;;;;;;;;6236839;28;20303;-78
2022/12/14 08:57:03;;;;;;;3.97;3.60;;;;;;;;;;6237452;28;20275;-77
2022/12/14 09:00:09;;;;;;;3.73;3.53;;;;;;;;;;6236105;28;20297;-77
2022/12/14 09:03:16;;;;;;;7.50;4.33;;;;;;;;;;6236806;28;20308;-77
2022/12/14 09:06:25;;;;;;;3.97;3.53;;;;;;;;;;6236698;28;20275;-78
2022/12/14 09:09:30;;;;;;;3.93;3.60;;;;;;;;;;6244642;28;20467;-78
2022/12/14 09:12:35;;;;;;;3.50;3.30;;;;;;;;;;6236851;28;20294;-76
2022/12/14 09:15:40;;;;;;;3.90;3.40;;;;;;;;;;6236951;28;20302;-76
2022/12/14 09:18:49;;;;;;;7.93;4.80;;;;;;;;;;6236601;28;20304;-77
2022/12/14 09:21:54;;;;;;;4.03;3.50;;;;;;;;;;6237471;28;20280;-76
2022/12/14 09:24:59;;;;;;;4.03;3.67;;;;;;;;;;6236579;28;20567;-77
2022/12/14 09:28:04;;;;;;;4.17;3.87;;;;;;;;;;6236353;28;20296;-76
2022/12/14 09:31:12;;;;;;;3.57;3.37;;;;;;;;;;6236995;28;20281;-75
2022/12/14 09:34:19;;;;;;;4.10;3.73;;;;;;;;;;6236282;28;20415;-76
2022/12/14 09:37:24;;;;;;;3.77;3.57;;;;;;;;;;6236636;28;20565;-75
2022/12/14 09:40:32;;;;;;;3.60;3.30;;;;;;;;;;6236446;28;20293;-78
2022/12/14 09:43:40;;;;;;;3.97;3.77;;;;;;;;;;6235943;28;20580;-77
2022/12/14 09:46:53;;;;;;;6.23;5.70;;;;;;;;;;6236539;28;20267;-78
2022/12/14 09:50:02;;;;;;;3.70;3.60;;;;;;;;;;6235857;28;20298;-75
2022/12/14 09:53:11;;;;;;;5.10;4.37;;;;;;;;;;6234806;28;20294;-78
2022/12/14 09:56:18;;;;;;;4.93;4.13;;;;;;;;;;6235934;28;20521;-77
2022/12/14 09:59:22;;;;;;;4.27;3.97;;;;;;;;;;6234764;28;20391;-77
2022/12/14 10:02:42;;;;;;;3.50;3.40;;;;;;;;;;6235761;28;20423;-76
2022/12/14 10:06:02;;;;;;;3.77;3.57;;;;;;;;;;6236586;28;20275;-77
2022/12/14 10:09:18;;;;;;;3.57;3.37;;;;;;;;;;6236151;28;20605;-77
2022/12/14 10:12:33;;;;;;;4.50;3.50;;;;;;;;;;6236251;28;20296;-77
2022/12/14 10:15:42;;;;;;;4.07;3.50;;;;;;;;;;6237904;28;20311;-76
2022/12/14 10:19:13;;;;;;;4.50;4.10;;;;;;;;;;6236366;28;20325;-76
2022/12/14 10:22:22;;;;;;;5.93;4.00;;;;;;;;;;6244010;28;20292;-79
2022/12/14 10:25:29;;;;;;;4.30;4.00;;;;;;;;;;6236225;28;20280;-78
2022/12/14 10:28:43;;;;;;;3.93;3.60;;;;;;;;;;6235874;28;20236;-77
2022/12/14 10:31:54;;;;;;;5.20;4.50;;;;;;;;;;6236174;28;20271;-76
2022/12/14 10:34:59;;;;;;;4.43;4.10;;;;;;;;;;6235414;28;20459;-78
2022/12/14 10:38:11;;;;;;;4.07;3.87;;;;;;;;;;6235462;28;20292;-78
2022/12/14 10:41:22;;;;;;;4.40;3.70;;;;;;;;;;6236250;28;20300;-77
2022/12/14 10:44:31;;;;;;;4.57;4.23;;;;;;;;;;6235611;28;20309;-79
2022/12/14 10:47:39;;;;;;;5.17;4.70;;;;;;;;;;6236210;28;20296;-78
2022/12/14 10:50:50;;;;;;;4.60;4.07;;;;;;;;;;6236337;28;20276;-76
2022/12/14 10:53:58;;;;;;;5.60;5.07;;;;;;;;;;6235382;28;20296;-78
2022/12/14 10:57:03;;;;;;;4.67;4.37;;;;;;;;;;6235286;28;20274;-76
2022/12/14 11:00:14;;;;;;;4.23;3.97;;;;;;;;;;6236180;28;20295;-78
2022/12/14 11:03:27;;;;;;;6.47;5.67;;;;;;;;;;6222768;28;20308;-77
2022/12/14 11:06:34;;;;;;;8.27;6.23;;;;;;;;;;6211823;28;20276;-79
2022/12/14 11:09:40;;;;;;;6.80;6.07;;;;;;;;;;6210999;28;20296;-79
2022/12/14 11:13:02;;;;;;;4.70;4.30;;;;;;;;;;6209431;28;20304;-78
2022/12/14 11:16:22;;;;;;;4.63;4.33;;;;;;;;;;6211512;28;20277;-76
2022/12/14 11:19:29;;;;;;;4.10;3.73;;;;;;;;;;6210628;28;20313;-77
2022/12/14 11:22:44;;;;;;;4.23;3.90;;;;;;;;;;6210417;28;20300;-76
2022/12/14 11:25:53;;;;;;;4.00;3.77;;;;;;;;;;6210741;28;20280;-76
2022/12/14 11:29:04;;;;;;;4.47;4.17;;;;;;;;;;6210077;28;20300;-76
2022/12/14 11:32:18;;;;;;;6.93;4.00;;;;;;;;;;6215401;28;20276;-76
2022/12/14 11:35:23;;;;;;;4.00;3.80;;;;;;;;;;6221746;28;20272;-76
2022/12/14 11:38:29;;;;;;;3.97;3.67;;;;;;;;;;6216966;28;20320;-77
2022/12/14 11:41:38;;;;;;;5.17;4.07;;;;;;;;;;6247353;28;20599;-75
2022/12/14 11:44:58;;;;;;;4.73;4.37;;;;;;;;;;6215218;28;20298;-77
2022/12/14 11:48:22;;;;;;;3.50;3.40;;;;;;;;;;6213327;28;20304;-77
2022/12/14 11:51:26;;;;;;;4.63;4.30;;;;;;;;;;6215639;28;20323;-77
2022/12/14 11:54:32;;;;;;;4.50;4.13;;;;;;;;;;6214537;28;20294;-78
2022/12/14 11:57:48;;;;;;;4.33;4.00;;;;;;;;;;6214293;28;20606;-79
2022/12/14 12:00:57;;;;;;;4.40;4.00;;;;;;;;;;6214649;28;20480;-77
2022/12/14 12:04:02;;;;;;;4.23;4.03;;;;;;;;;;6213949;28;20300;-77
2022/12/14 12:07:13;;;;;;;3.63;3.43;;;;;;;;;;6214330;28;20292;-78
2022/12/14 12:10:22;;;;;;;4.77;3.30;;;;;;;;;;6215050;28;20268;-77
2022/12/14 12:13:35;;;;;;;3.50;3.20;;;;;;;;;;6213747;28;20303;-77
2022/12/14 12:16:42;;;;;;;2.93;2.83;;;;;;;;;;6214763;28;20277;-77
2022/12/14 12:19:51;;;;;;;3.30;3.20;;;;;;;;;;6214095;28;20508;-78
2022/12/14 12:23:00;;;;;;;3.23;3.13;;;;;;;;;;6222275;28;20295;-77
2022/12/14 12:26:12;;;;;;;3.07;2.93;;;;;;;;;;6239070;28;20276;-76
2022/12/14 12:29:23;;;;;;;3.20;3.00;;;;;;;;;;6236167;28;20576;-78
2022/12/14 12:32:33;;;;;;;2.83;2.73;;;;;;;;;;6238050;28;20299;-79
2022/12/14 12:35:42;;;;;;;3.93;3.77;;;;;;;;;;6238527;28;20271;-78
2022/12/14 12:39:03;;;;;;;2.93;2.83;;;;;;;;;;6237749;28;20308;-80
2022/12/14 12:42:18;;;;;;;3.30;3.10;;;;;;;;;;6237834;28;20294;-78
2022/12/14 12:45:27;;;;;;;3.80;3.50;;;;;;;;;;6272700;28;20265;-77
2022/12/14 12:48:35;;;;;;;3.30;3.10;;;;;;;;;;6239455;28;20317;-77
2022/12/14 12:51:44;;;;;;;4.10;2.90;;;;;;;;;;6238509;28;20340;-76
2022/12/14 12:54:55;;;;;;;3.30;3.10;;;;;;;;;;6237835;28;20310;-78
2022/12/14 12:58:03;;;;;;;3.67;3.47;;;;;;;;;;6237507;28;20302;-78
2022/12/14 13:01:18;;;;;;;4.97;3.30;;;;;;;;;;6236100;28;20582;-79
2022/12/14 13:04:29;;;;;;;4.30;3.50;;;;;;;;;;6239302;28;20309;-79
2022/12/14 13:07:38;;;;;;;4.20;3.87;;;;;;;;;;6238418;28;20290;-79
2022/12/14 13:10:44;;;;;;;3.27;3.17;;;;;;;;;;6269588;28;20270;-78
2022/12/14 13:14:18;;;;;;;3.97;3.20;;;;;;;;;;6237013;28;20311;-79
2022/12/14 13:17:30;;;;;;;5.47;2.97;;;;;;;;;;6267974;28;20282;-76
2022/12/14 13:20:35;;;;;;;2.90;2.80;;;;;;;;;;6237457;28;20303;-77
2022/12/14 13:23:40;;;;;;;3.23;3.00;;;;;;;;;;6237060;28;20471;-76
2022/12/14 13:27:03;;;;;;;3.00;2.80;;;;;;;;;;6237335;28;20274;-77
2022/12/14 13:30:25;;;;;;;3.03;2.80;;;;;;;;;;6243110;28;20281;-77
2022/12/14 13:33:55;;;;;;;3.07;2.97;;;;;;;;;;6224974;28;20295;-78
2022/12/14 13:37:32;;;;;;;4.23;3.03;;;;;;;;;;6268477;28;20274;-77
2022/12/14 13:40:46;;;;;;;3.03;2.80;;;;;;;;;;6252323;28;20266;-76
2022/12/14 13:44:08;;;;;;;3.40;3.10;;;;;;;;;;6235449;28;20294;-78
2022/12/14 13:47:16;;;;;;;3.20;3.00;;;;;;;;;;6236969;28;20273;-77
2022/12/14 13:50:28;;;;;;;3.30;3.03;;;;;;;;;;6236726;28;20270;-77
2022/12/14 13:53:48;;;;;;;3.40;3.10;;;;;;;;;;6235887;28;20301;-77
2022/12/14 13:57:04;;;;;;;3.10;2.90;;;;;;;;;;6237176;28;20261;-79
2022/12/14 14:00:53;;;;;;;2.80;2.70;;;;;;;;;;6216764;28;20273;-77
2022/12/14 14:04:20;;;;;;;2.53;2.43;;;;;;;;;;6227959;28;20306;-77
2022/12/14 14:07:53;;;;;;;2.20;2.10;;;;;;;;;;6235140;28;20301;-77
2022/12/14 14:10:58;;;;;;;2.40;2.30;;;;;;;;;;6268181;28;20299;-77
2022/12/14 14:14:45;;;;;;;2.23;2.13;;;;;;;;;;6235852;28;20309;-77
2022/12/14 14:17:52;;;;;;;2.60;2.50;;;;;;;;;;6236812;28;20577;-77
2022/12/14 14:21:29;;;;;;;2.30;2.20;;;;;;;;;;6235840;28;20272;-77
2022/12/14 14:24:59;;;;;;;2.20;2.20;;;;;;;;;;6236180;28;20465;-79
2022/12/14 14:28:04;;;;;;;2.67;2.40;;;;;;;;;;6218917;28;20297;-78
2022/12/14 14:31:11;;;;;;;2.70;2.60;;;;;;;;;;6240162;28;20517;-77
2022/12/14 14:34:23;;;;;;;4.07;3.87;;;;;;;;;;6235334;28;20311;-78
2022/12/14 14:37:31;;;;;;;17.27;11.47;;;;;;;;;;6267072;28;20364;-77
2022/12/14 14:40:39;;;;;;;4.50;4.10;;;;;;;;;;6235586;28;20276;-77
2022/12/14 14:44:06;;;;;;;5.87;3.00;;;;;;;;;;6234392;28;20295;-77
2022/12/14 14:47:22;;;;;;;2.50;2.50;;;;;;;;;;6235601;28;20277;-77
2022/12/14 14:50:30;;;;;;;3.30;2.90;;;;;;;;;;6236151;28;20463;-77
2022/12/14 14:53:35;;;;;;;6.53;3.07;;;;;;;;;;6235404;28;20495;-77
2022/12/14 14:56:42;;;;;;;2.70;2.50;;;;;;;;;;6236138;28;20272;-77
2022/12/14 14:59:53;;;;;;;2.80;2.60;;;;;;;;;;6234043;28;20301;-77
2022/12/14 15:03:02;;;;;;;3.20;2.30;;;;;;;;;;6235033;28;20297;-77
2022/12/14 15:06:12;;;;;;;2.10;2.10;;;;;;;;;;6239449;28;20277;-77
2022/12/14 15:09:21;;;;;;;3.70;2.60;;;;;;;;;;6239952;28;20300;-76
2022/12/14 15:12:33;;;;;;;3.20;2.90;;;;;;;;;;6246255;28;20296;-77
2022/12/14 15:15:42;;;;;;;2.50;2.40;;;;;;;;;;6238763;28;20264;-78
2022/12/14 15:18:47;;;;;;;3.10;2.90;;;;;;;;;;6238415;28;20300;-75
2022/12/14 15:21:56;;;;;;;2.77;2.63;;;;;;;;;;6239593;28;20289;-78
2022/12/14 15:25:02;;;;;;;2.40;2.30;;;;;;;;;;6270874;28;20293;-78
2022/12/14 15:28:18;;;;;;;1.80;1.80;;;;;;;;;;6238729;28;20303;-76
2022/12/14 15:31:29;;;;;;;2.20;2.10;;;;;;;;;;6239544;28;20566;-76
2022/12/14 15:34:35;;;;;;;2.70;2.60;;;;;;;;;;6239590;28;20312;-76
2022/12/14 15:37:43;;;;;;;3.10;2.90;;;;;;;;;;6240474;28;20268;-76
2022/12/14 15:40:55;;;;;;;2.60;2.50;;;;;;;;;;6239190;28;20330;-78
2022/12/14 15:44:01;;;;;;;2.53;2.53;;;;;;;;;;6239260;28;20303;-78
2022/12/14 15:47:06;;;;;;;2.53;2.33;;;;;;;;;;6239873;28;20268;-77
2022/12/14 15:50:25;;;;;;;2.07;2.07;;;;;;;;;;6270844;28;20577;-77
2022/12/14 15:53:32;;;;;;;2.10;2.10;;;;;;;;;;6240199;28;20277;-77
2022/12/14 15:56:39;;;;;;;2.57;2.37;;;;;;;;;;6241923;28;20268;-77
2022/12/14 15:59:46;;;;;;;2.97;2.73;;;;;;;;;;6239007;28;20293;-77
2022/12/14 16:02:54;;;;;;;2.47;2.47;;;;;;;;;;6238656;28;20304;-77
2022/12/14 16:05:59;;;;;;;3.20;3.00;;;;;;;;;;6239332;28;20301;-77
2022/12/14 16:09:06;;;;;;;2.40;2.40;;;;;;;;;;6239041;28;20317;-77
2022/12/14 16:12:17;;;;;;;2.27;2.20;;;;;;;;;;6239441;28;20662;-77
2022/12/14 16:15:25;;;;;;;2.30;2.20;;;;;;;;;;6238191;28;20292;-78
2022/12/14 16:18:30;;;;;;;2.63;2.43;;;;;;;;;;6237833;28;20281;-77
2022/12/14 16:21:36;;;;;;;3.43;3.10;;;;;;;;;;6238261;28;20277;-77
2022/12/14 16:24:59;;;;;;;3.77;3.47;;;;;;;;;;6243720;28;20291;-79
2022/12/14 16:28:21;;;;;;;5.47;3.40;;;;;;;;;;6238498;28;20269;-78
2022/12/14 16:31:28;;;;;;;3.23;3.13;;;;;;;;;;6237796;28;20307;-77
2022/12/14 16:34:36;;;;;;;3.57;3.37;;;;;;;;;;6238165;28;20429;-77
2022/12/14 16:37:43;;;;;;;3.20;3.00;;;;;;;;;;6238765;28;20329;-77
2022/12/14 16:40:54;;;;;;;5.43;3.20;;;;;;;;;;6237250;28;20302;-77
2022/12/14 16:44:01;;;;;;;3.50;3.37;;;;;;;;;;6236711;28;20309;-76
2022/12/14 16:47:28;;;;;;;3.03;2.93;;;;;;;;;;6238928;28;20274;-79
2022/12/14 16:50:36;;;;;;;3.67;3.00;;;;;;;;;;6236882;28;20289;-75
2022/12/14 16:54:03;;;;;;;3.53;3.23;;;;;;;;;;6237725;28;20479;-77
2022/12/14 16:57:20;;;;;;;4.10;3.80;;;;;;;;;;6238477;28;20274;-77
2022/12/14 17:00:28;;;;;;;7.57;3.30;;;;;;;;;;6236299;28;20305;-77
2022/12/14 17:03:35;;;;;;;7.30;3.60;;;;;;;;;;6219284;28;20304;-77
2022/12/14 17:06:48;;;;;;;3.40;3.20;;;;;;;;;;6236524;28;20547;-75
2022/12/14 17:09:55;;;;;;;3.40;3.10;;;;;;;;;;6235851;28;20298;-77
2022/12/14 17:13:04;;;;;;;3.70;3.40;;;;;;;;;;6236300;28;20277;-78
2022/12/14 17:16:19;;;;;;;3.10;3.00;;;;;;;;;;6236950;28;20299;-77
2022/12/14 17:19:31;;;;;;;3.33;3.13;;;;;;;;;;6236530;28;20302;-79
2022/12/14 17:22:40;;;;;;;3.20;3.00;;;;;;;;;;6238912;28;20269;-78
2022/12/14 17:25:45;;;;;;;3.83;3.47;;;;;;;;;;6268968;28;20294;-78
2022/12/14 17:28:52;;;;;;;3.23;2.93;;;;;;;;;;6236375;28;26264;-76
2022/12/14 17:32:00;;;;;;;3.20;3.00;;;;;;;;;;6269444;28;20277;-78
2022/12/14 17:35:09;;;;;;;5.97;3.43;;;;;;;;;;6237055;28;20476;-79
2022/12/14 17:38:15;;;;;;;3.43;3.23;;;;;;;;;;6242628;28;20278;-77
2022/12/14 17:41:25;;;;;;;4.83;4.53;;;;;;;;;;6236343;28;20297;-78
2022/12/14 17:44:29;;;;;;;5.93;4.43;;;;;;;;;;6236401;28;20299;-79
2022/12/14 17:47:35;;;;;;;4.57;4.13;;;;;;;;;;6236700;28;20565;-78
2022/12/14 17:50:42;;;;;;;3.57;3.27;;;;;;;;;;6236748;28;20304;-76
2022/12/14 17:53:47;;;;;;;8.73;4.00;;;;;;;;;;6236242;28;20285;-78
2022/12/14 17:56:52;;;;;;;4.87;3.17;;;;;;;;;;6235804;28;20296;-77
2022/12/14 18:03:18;;;;;;;3.90;3.30;;;;;;;;;;6237286;28;20308;-78
2022/12/14 18:06:25;;;;;;;3.87;3.67;;;;;;;;;;6237257;28;20619;-78
2022/12/14 18:09:30;;;;;;;4.80;4.50;;;;;;;;;;6236198;28;20600;-77
2022/12/14 18:12:35;;;;;;;5.00;3.47;;;;;;;;;;6236939;28;20277;-77
2022/12/14 18:15:42;;;;;;;4.77;3.83;;;;;;;;;;6236197;28;20311;-78
2022/12/14 18:18:54;;;;;;;4.27;3.97;;;;;;;;;;6236164;28;20316;-77
2022/12/14 18:22:01;;;;;;;3.70;3.47;;;;;;;;;;6236234;28;20276;-76
2022/12/14 18:25:27;;;;;;;6.40;4.30;;;;;;;;;;6236572;28;20307;-77
2022/12/14 18:28:33;;;;;;;4.10;3.83;;;;;;;;;;6236504;28;20271;-78
2022/12/14 18:31:41;;;;;;;5.13;3.97;;;;;;;;;;6234505;28;20269;-77
2022/12/14 18:34:54;;;;;;;5.90;3.60;;;;;;;;;;6224238;28;20296;-78
2022/12/14 18:38:05;;;;;;;7.47;3.77;;;;;;;;;;6211599;28;20293;-78
2022/12/14 18:41:17;;;;;;;5.07;4.63;;;;;;;;;;6211583;28;20296;-78
2022/12/14 18:44:24;;;;;;;4.77;4.30;;;;;;;;;;6211355;28;20308;-79
2022/12/14 18:47:40;;;;;;;4.50;4.10;;;;;;;;;;6216709;28;20261;-79
2022/12/14 18:50:50;;;;;;;3.73;3.43;;;;;;;;;;6217922;28;20324;-78
2022/12/14 18:54:02;;;;;;;3.17;2.97;;;;;;;;;;6211600;28;20293;-78
2022/12/14 18:57:10;;;;;;;4.17;3.17;;;;;;;;;;6212880;28;20269;-76
2022/12/14 19:00:19;;;;;;;4.30;3.90;;;;;;;;;;6212277;28;20292;-77
2022/12/14 19:03:30;;;;;;;5.87;3.80;;;;;;;;;;6211296;28;20597;-77
2022/12/14 19:06:44;;;;;;;3.03;2.93;;;;;;;;;;6234388;28;20272;-78
2022/12/14 19:09:54;;;;;;;3.23;3.07;;;;;;;;;;6235526;28;20288;-77
2022/12/14 19:13:01;;;;;;;4.77;3.17;;;;;;;;;;6233053;28;20272;-77
2022/12/14 19:16:08;;;;;;;3.50;3.30;;;;;;;;;;6235594;28;20313;-74
2022/12/14 19:19:16;;;;;;;2.90;2.80;;;;;;;;;;6234627;28;20296;-73